createdAt,value
2019-04-10T00:01:37.336Z,24.80
2019-04-10T00:04:07.114Z,25.47
2019-04-10T00:06:37.590Z,23.33
2019-04-10T00:09:08.475Z,24.33
2019-04-10T00:11:37.928Z,26.10
2019-04-10T00:14:08.288Z,25.43
2019-04-10T00:16:38.323Z,24.70
2019-04-10T00:19:08.707Z,23.90
2019-04-10T00:21:38.176Z,23.97
2019-04-10T00:24:08.041Z,24.90
2019-04-10T00:26:37.717Z,26.23
2019-04-10T00:29:07.769Z,24.87
2019-04-10T00:31:38.142Z,25.30
2019-04-10T00:34:07.745Z,25.90
2019-04-10T00:36:37.359Z,24.73
2019-04-10T00:39:08.679Z,25.33
2019-04-10T00:41:38.588Z,25.03
2019-04-10T00:44:08.037Z,26.17
2019-04-10T00:46:37.982Z,25.83
2019-04-10T00:49:07.417Z,26.07
2019-04-10T00:51:36.707Z,24.57
2019-04-10T00:54:06.042Z,26.27
2019-04-10T00:56:35.343Z,27.17
2019-04-10T00:59:05.909Z,28.70
2019-04-10T01:01:36.144Z,27.10
2019-04-10T01:04:06.925Z,26.63
2019-04-10T01:06:36.493Z,26.30
2019-04-10T01:09:08.984Z,26.60
2019-04-10T01:11:39.239Z,26.07
2019-04-10T01:14:09.634Z,26.87
2019-04-10T01:16:39.772Z,27.70
2019-04-10T01:19:09.983Z,27.87
2019-04-10T01:21:39.412Z,26.60
2019-04-10T01:24:09.073Z,27.73
2019-04-10T01:26:39.128Z,27.23
2019-04-10T01:29:09.258Z,26.37
2019-04-10T01:31:39.407Z,29.60
2019-04-10T01:34:09.432Z,28.17
2019-04-10T01:36:39.487Z,26.83
2019-04-10T01:39:10.945Z,28.13
2019-04-10T01:41:40.489Z,26.60
2019-04-10T01:44:09.802Z,28.47
2019-04-10T01:46:40.225Z,27.93
2019-04-10T01:49:09.690Z,28.73
2019-04-10T01:51:39.354Z,28.13
2019-04-10T01:54:09.105Z,28.20
2019-04-10T01:56:38.432Z,28.03
2019-04-10T01:59:07.802Z,28.03
2019-04-10T02:01:41.408Z,29.47
2019-04-10T02:04:10.923Z,29.33
2019-04-10T02:06:41.226Z,27.90
2019-04-10T02:09:11.058Z,32.50
2019-04-10T02:11:40.386Z,28.47
2019-04-10T02:14:09.742Z,29.40
2019-04-10T02:16:39.128Z,29.53
2019-04-10T02:19:08.433Z,28.17
2019-04-10T02:21:38.080Z,27.30
2019-04-10T02:24:07.693Z,28.23
2019-04-10T02:26:38.064Z,30.03
2019-04-10T02:29:07.810Z,30.47
2019-04-10T02:31:38.912Z,30.67
2019-04-10T02:34:09.371Z,29.63
2019-04-10T02:36:39.150Z,31.10
2019-04-10T02:39:20.554Z,29.70
2019-04-10T02:41:39.411Z,30.27
2019-04-10T02:44:09.969Z,28.90
2019-04-10T02:46:41.282Z,32.63
2019-04-10T02:49:12.323Z,28.67
2019-04-10T02:51:43.189Z,29.40
2019-04-10T02:54:13.638Z,29.27
2019-04-10T02:56:45.570Z,29.93
2019-04-10T02:59:15.501Z,27.97
2019-04-10T03:01:45.507Z,30.17
2019-04-10T03:04:16.471Z,29.07
2019-04-10T03:06:47.151Z,29.47
2019-04-10T03:09:32.486Z,31.50
2019-04-10T03:11:47.829Z,29.00
2019-04-10T03:14:18.778Z,28.93
2019-04-10T03:16:48.181Z,28.80
2019-04-10T03:19:17.473Z,27.87
2019-04-10T03:21:47.138Z,30.10
2019-04-10T03:24:16.820Z,30.07
2019-04-10T03:26:46.235Z,27.87
2019-04-10T03:29:15.750Z,30.83
2019-04-10T03:31:47.084Z,29.60
2019-04-10T03:34:20.777Z,30.63
2019-04-10T03:36:49.652Z,31.83
2019-04-10T03:39:19.527Z,31.73
2019-04-10T03:41:48.864Z,32.87
2019-04-10T03:44:18.727Z,36.73
2019-04-10T03:46:49.033Z,29.23
2019-04-10T03:49:18.692Z,32.40
2019-04-10T03:51:49.123Z,31.40
2019-04-10T03:54:18.796Z,31.53
2019-04-10T03:56:48.156Z,31.03
2019-04-10T03:59:17.468Z,31.73
2019-04-10T04:01:47.220Z,30.87
2019-04-10T04:04:17.497Z,32.97
2019-04-10T04:06:47.958Z,33.67
2019-04-10T04:09:17.745Z,31.20
2019-04-10T04:11:47.938Z,33.27
2019-04-10T04:14:17.603Z,32.33
2019-04-10T04:16:47.127Z,31.63
2019-04-10T04:19:16.464Z,33.37
2019-04-10T04:21:46.055Z,32.30
2019-04-10T04:24:15.660Z,35.30
2019-04-10T04:26:44.920Z,33.23
2019-04-10T04:29:14.432Z,36.40
2019-04-10T04:31:44.155Z,32.47
2019-04-10T04:34:14.230Z,33.63
2019-04-10T04:36:43.813Z,31.53
2019-04-10T04:39:21.668Z,33.77
2019-04-10T04:41:44.389Z,41.63
2019-04-10T04:44:14.617Z,33.00
2019-04-10T04:46:44.984Z,31.93
2019-04-10T04:49:15.655Z,31.87
2019-04-10T04:51:45.695Z,31.10
2019-04-10T04:54:15.178Z,32.40
2019-04-10T04:56:44.625Z,33.53
2019-04-10T04:59:14.189Z,31.33
2019-04-10T05:01:44.783Z,30.53
2019-04-10T05:04:15.183Z,32.20
2019-04-10T05:06:45.838Z,31.80
2019-04-10T05:09:27.404Z,35.50
2019-04-10T05:11:46.875Z,35.83
2019-04-10T05:14:17.387Z,32.77
2019-04-10T05:16:47.810Z,32.90
2019-04-10T05:19:17.438Z,33.37
2019-04-10T05:21:47.675Z,31.17
2019-04-10T05:24:17.851Z,33.57
2019-04-10T05:26:47.355Z,34.53
2019-04-10T05:29:18.066Z,33.17
2019-04-10T05:31:47.668Z,34.13
2019-04-10T05:34:17.797Z,33.27
2019-04-10T05:36:47.557Z,33.03
2019-04-10T05:39:16.939Z,34.30
2019-04-10T05:41:47.101Z,32.67
2019-04-10T05:44:17.980Z,33.50
2019-04-10T05:46:47.855Z,29.73
2019-04-10T05:49:17.235Z,33.07
2019-04-10T05:51:47.916Z,32.20
2019-04-10T05:54:17.501Z,30.33
2019-04-10T05:56:47.490Z,30.70
2019-04-10T05:59:16.804Z,30.97
2019-04-10T06:01:46.146Z,30.20
2019-04-10T06:04:16.825Z,31.43
2019-04-10T06:06:46.543Z,29.00
2019-04-10T06:09:16.362Z,36.17
2019-04-10T06:11:47.247Z,30.33
2019-04-10T06:14:17.789Z,29.87
2019-04-10T06:16:47.250Z,31.90
2019-04-10T06:19:17.791Z,27.63
2019-04-10T06:21:48.193Z,30.43
2019-04-10T06:24:18.335Z,31.77
2019-04-10T06:26:48.207Z,29.53
2019-04-10T06:29:19.095Z,29.93
2019-04-10T06:31:49.341Z,30.43
2019-04-10T06:34:18.960Z,39.97
2019-04-10T06:36:49.445Z,34.53
2019-04-10T06:39:19.027Z,51.13
2019-04-10T06:41:48.764Z,37.70
2019-04-10T06:44:19.552Z,29.37
2019-04-10T06:46:49.068Z,41.87
2019-04-10T06:49:18.691Z,27.07
2019-04-10T06:51:49.308Z,41.60
2019-04-10T06:54:20.510Z,31.30
2019-04-10T06:56:50.330Z,32.10
2019-04-10T06:59:19.828Z,25.83
2019-04-10T07:01:54.557Z,34.43
2019-04-10T07:04:24.208Z,22.87
2019-04-10T07:06:59.758Z,21.57
2019-04-10T07:09:26.231Z,18.87
2019-04-10T07:11:58.509Z,20.67
2019-04-10T07:14:26.801Z,21.10
2019-04-10T07:17:00.739Z,18.53
2019-04-10T07:19:28.240Z,22.20
2019-04-10T07:22:00.174Z,18.87
2019-04-10T07:24:29.241Z,18.83
2019-04-10T07:27:03.305Z,16.50
2019-04-10T07:29:30.813Z,19.37
2019-04-10T07:32:00.539Z,17.07
2019-04-10T07:34:30.064Z,18.30
2019-04-10T07:37:00.211Z,19.33
2019-04-10T07:39:32.535Z,17.17
2019-04-10T07:42:00.696Z,15.53
2019-04-10T07:44:30.004Z,16.73
2019-04-10T07:47:00.747Z,17.00
2019-04-10T07:49:31.344Z,17.37
2019-04-10T07:52:02.489Z,16.10
2019-04-10T07:54:33.046Z,16.77
2019-04-10T07:57:02.697Z,18.80
2019-04-10T07:59:31.989Z,17.00
2019-04-10T08:02:02.400Z,16.60
2019-04-10T08:04:33.141Z,16.30
2019-04-10T08:07:03.096Z,15.13
2019-04-10T08:09:33.467Z,16.40
2019-04-10T08:12:03.142Z,22.50
2019-04-10T08:14:32.708Z,17.83
2019-04-10T08:17:02.378Z,18.50
2019-04-10T08:19:32.742Z,15.93
2019-04-10T08:22:03.398Z,16.73
2019-04-10T08:24:34.387Z,16.30
2019-04-10T08:27:04.003Z,16.83
2019-04-10T08:29:34.303Z,16.23
2019-04-10T08:32:03.869Z,17.50
2019-04-10T08:34:33.615Z,16.50
2019-04-10T08:37:03.811Z,15.83
2019-04-10T08:39:40.261Z,16.07
2019-04-10T08:42:04.729Z,17.53
2019-04-10T08:44:34.105Z,15.67
2019-04-10T08:47:03.513Z,15.67
2019-04-10T08:49:32.807Z,15.50
2019-04-10T08:52:02.601Z,15.57
2019-04-10T08:54:32.251Z,16.37
2019-04-10T08:57:03.230Z,17.83
2019-04-10T08:59:33.934Z,16.30
2019-04-10T09:02:04.234Z,17.93
2019-04-10T09:04:33.664Z,16.07
2019-04-10T09:07:04.236Z,15.20
2019-04-10T09:09:34.529Z,16.40
2019-04-10T09:12:05.242Z,15.73
2019-04-10T09:14:35.062Z,15.73
2019-04-10T09:17:04.884Z,16.23
2019-04-10T09:19:34.322Z,16.20
2019-04-10T09:22:04.242Z,15.53
2019-04-10T09:24:34.150Z,15.73
2019-04-10T09:27:04.691Z,14.87
2019-04-10T09:29:34.367Z,15.93
2019-04-10T09:32:04.478Z,16.17
2019-04-10T09:34:34.070Z,13.70
2019-04-10T09:37:03.947Z,15.20
2019-04-10T09:39:33.819Z,14.87
2019-04-10T09:42:03.517Z,14.60
2019-04-10T09:44:33.240Z,16.93
2019-04-10T09:47:02.610Z,14.50
2019-04-10T09:49:38.940Z,15.03
2019-04-10T09:52:03.390Z,14.30
2019-04-10T09:54:32.979Z,15.20
2019-04-10T09:57:03.341Z,14.73
2019-04-10T09:59:36.919Z,15.43
2019-04-10T10:02:04.295Z,14.80
2019-04-10T10:04:33.754Z,15.07
2019-04-10T10:07:03.964Z,15.10
2019-04-10T10:09:34.632Z,15.83
2019-04-10T10:12:05.915Z,14.70
2019-04-10T10:14:35.857Z,13.73
2019-04-10T10:17:06.430Z,13.07
2019-04-10T10:19:36.372Z,14.40
2019-04-10T10:22:06.553Z,13.77
2019-04-10T10:24:37.176Z,14.23
2019-04-10T10:27:07.656Z,14.93
2019-04-10T10:29:37.628Z,16.70
2019-04-10T10:32:07.189Z,23.23
2019-04-10T10:34:36.746Z,15.83
2019-04-10T10:37:06.597Z,13.27
2019-04-10T10:39:37.043Z,12.60
2019-04-10T10:42:07.605Z,13.20
2019-04-10T10:44:38.341Z,15.10
2019-04-10T10:47:08.369Z,13.87
2019-04-10T10:49:38.166Z,15.17
2019-04-10T10:52:07.564Z,13.83
2019-04-10T10:54:37.038Z,13.47
2019-04-10T10:57:06.944Z,15.30
2019-04-10T10:59:37.645Z,13.67
2019-04-10T11:02:08.466Z,13.47
2019-04-10T11:04:38.012Z,12.13
2019-04-10T11:07:07.320Z,12.47
2019-04-10T11:09:37.685Z,13.10
2019-04-10T11:12:07.077Z,12.87
2019-04-10T11:14:37.137Z,12.40
2019-04-10T11:17:06.942Z,13.30
2019-04-10T11:19:37.118Z,11.73
2019-04-10T11:22:07.429Z,11.73
2019-04-10T11:24:38.247Z,12.43
2019-04-10T11:27:09.898Z,17.73
2019-04-10T11:29:39.140Z,14.10
2019-04-10T11:32:09.511Z,12.33
2019-04-10T11:34:40.596Z,13.87
2019-04-10T11:37:24.206Z,13.43
2019-04-10T11:39:43.411Z,14.73
2019-04-10T11:42:12.222Z,13.60
2019-04-10T11:44:45.155Z,13.10
2019-04-10T11:47:12.778Z,15.20
2019-04-10T11:49:43.969Z,13.10
2019-04-10T11:52:14.485Z,12.30
2019-04-10T11:54:46.082Z,12.83
2019-04-10T11:57:16.648Z,12.83
2019-04-10T11:59:48.831Z,13.83
2019-04-10T12:02:21.824Z,14.13
2019-04-10T12:04:56.985Z,14.23
2019-04-10T12:12:22.456Z,28.10
2019-04-10T12:14:52.070Z,14.53
2019-04-10T12:17:22.169Z,13.67
2019-04-10T12:19:52.111Z,17.13
2019-04-10T12:22:21.703Z,13.93
2019-04-10T12:24:51.607Z,13.30
2019-04-10T12:27:21.105Z,15.77
2019-04-10T12:29:50.991Z,15.83
2019-04-10T12:32:20.916Z,13.97
2019-04-10T12:34:50.820Z,14.47
2019-04-10T12:37:21.117Z,12.67
2019-04-10T12:39:50.420Z,14.50
2019-04-10T12:42:20.275Z,12.43
2019-04-10T12:44:49.576Z,14.23
2019-04-10T12:47:18.892Z,12.40
2019-04-10T12:49:48.179Z,12.57
2019-04-10T12:52:18.462Z,13.23
2019-04-10T12:54:49.102Z,12.20
2019-04-10T12:57:19.762Z,13.03
2019-04-10T12:59:49.913Z,12.80
2019-04-10T13:02:20.500Z,20.60
2019-04-10T13:04:49.967Z,19.77
2019-04-10T13:07:19.337Z,12.33
2019-04-10T13:09:48.775Z,12.13
2019-04-10T13:12:18.096Z,11.57
2019-04-10T13:14:48.596Z,14.20
2019-04-10T13:17:20.043Z,13.53
2019-04-10T13:19:49.286Z,11.60
2019-04-10T13:22:18.682Z,21.87
2019-04-10T13:24:48.078Z,16.77
2019-04-10T13:27:17.407Z,17.20
2019-04-10T13:29:46.764Z,11.87
2019-04-10T13:32:16.948Z,16.63
2019-04-10T13:34:47.106Z,11.93
2019-04-10T13:37:16.437Z,9.93
2019-04-10T13:39:46.810Z,11.40
2019-04-10T13:42:16.860Z,12.00
2019-04-10T13:44:46.726Z,10.73
2019-04-10T13:47:17.440Z,10.67
2019-04-10T13:49:48.367Z,9.97
2019-04-10T13:52:18.322Z,10.40
2019-04-10T13:54:47.746Z,22.70
2019-04-10T13:57:17.961Z,28.20
2019-04-10T13:59:47.525Z,21.40
2019-04-10T14:02:18.458Z,10.33
2019-04-10T14:04:47.842Z,11.63
2019-04-10T14:07:17.983Z,15.23
2019-04-10T14:09:51.201Z,10.10
2019-04-10T14:12:18.671Z,13.03
2019-04-10T14:14:48.867Z,9.87
2019-04-10T14:17:19.514Z,9.80
2019-04-10T14:19:49.824Z,11.13
2019-04-10T14:22:19.721Z,10.00
2019-04-10T14:24:50.562Z,9.87
2019-04-10T14:27:24.514Z,9.97
2019-04-10T14:29:54.595Z,9.83
2019-04-10T14:32:26.018Z,9.37
2019-04-10T14:34:55.681Z,10.77
2019-04-10T14:37:25.718Z,9.83
2019-04-10T14:39:55.739Z,9.60
2019-04-10T14:42:26.625Z,8.77
2019-04-10T14:44:57.152Z,9.43
2019-04-10T14:47:27.625Z,9.50
2019-04-10T14:49:58.023Z,9.40
2019-04-10T14:52:27.651Z,9.53
2019-04-10T14:54:57.036Z,9.90
2019-04-10T14:57:26.644Z,8.37
2019-04-10T14:59:56.198Z,9.47
2019-04-10T15:02:26.351Z,9.93
2019-04-10T15:04:55.925Z,9.73
2019-04-10T15:07:25.252Z,11.03
2019-04-10T15:09:54.543Z,10.83
2019-04-10T15:12:24.694Z,9.73
2019-04-10T15:14:54.195Z,9.63
2019-04-10T15:17:23.538Z,10.70
2019-04-10T15:19:53.715Z,9.17
2019-04-10T15:22:23.517Z,10.97
2019-04-10T15:24:53.889Z,9.33
2019-04-10T15:27:23.345Z,9.27
2019-04-10T15:29:52.669Z,10.27
2019-04-10T15:32:22.384Z,10.43
2019-04-10T15:34:52.274Z,9.40
2019-04-10T15:37:22.675Z,9.60
2019-04-10T15:39:52.361Z,8.83
2019-04-10T15:42:21.811Z,26.83
2019-04-10T15:44:51.374Z,15.37
2019-04-10T15:47:23.156Z,10.63
2019-04-10T15:49:51.832Z,19.03
2019-04-10T15:52:21.180Z,11.90
2019-04-10T15:54:53.313Z,11.33
2019-04-10T15:57:22.678Z,12.50
2019-04-10T15:59:52.527Z,19.93
2019-04-10T16:02:23.736Z,16.53
2019-04-10T16:04:53.394Z,11.40
2019-04-10T16:07:22.813Z,11.63
2019-04-10T16:09:56.194Z,11.80
2019-04-10T16:12:25.610Z,12.27
2019-04-10T16:14:55.270Z,12.57
2019-04-10T16:17:26.250Z,12.97
2019-04-10T16:20:06.123Z,12.77
2019-04-10T16:22:40.534Z,14.30
2019-04-10T16:25:12.091Z,15.93
2019-04-10T16:27:41.450Z,13.47
2019-04-10T16:30:12.781Z,13.63
2019-04-10T16:32:42.419Z,16.87
2019-04-10T16:35:13.561Z,18.23
2019-04-10T16:37:43.972Z,13.20
2019-04-10T16:40:14.849Z,12.03
2019-04-10T16:42:44.490Z,12.23
2019-04-10T16:45:15.750Z,12.53
2019-04-10T16:47:46.055Z,13.43
2019-04-10T16:50:15.803Z,12.37
2019-04-10T16:52:45.300Z,11.70
2019-04-10T16:55:15.667Z,12.43
2019-04-10T16:57:45.432Z,11.07
2019-04-10T17:00:17.092Z,11.60
2019-04-10T17:02:46.920Z,11.20
2019-04-10T17:05:16.533Z,11.47
2019-04-10T17:07:47.392Z,12.23
2019-04-10T17:10:23.022Z,12.00
2019-04-10T17:12:49.779Z,11.33
2019-04-10T17:15:19.773Z,11.93
2019-04-10T17:17:49.076Z,16.70
2019-04-10T17:20:18.469Z,16.60
2019-04-10T17:22:49.723Z,16.13
2019-04-10T17:25:20.172Z,15.03
2019-04-10T17:27:50.065Z,11.93
2019-04-10T17:30:20.005Z,12.37
2019-04-10T17:32:49.849Z,12.13
2019-04-10T17:35:19.617Z,12.53
2019-04-10T17:37:49.926Z,11.47
2019-04-10T17:40:30.015Z,11.53
2019-04-10T17:42:52.643Z,11.47
2019-04-10T17:45:23.076Z,26.20
2019-04-10T17:47:54.612Z,12.67
2019-04-10T17:50:24.633Z,14.17
2019-04-10T17:52:54.332Z,11.20
2019-04-10T17:55:23.677Z,12.60
2019-04-10T17:57:55.768Z,13.13
2019-04-10T18:00:27.154Z,12.47
2019-04-10T18:02:57.210Z,11.83
2019-04-10T18:05:26.756Z,12.50
2019-04-10T18:07:56.631Z,14.60
2019-04-10T18:10:30.440Z,13.27
2019-04-10T18:12:57.666Z,13.37
2019-04-10T18:15:28.406Z,14.43
2019-04-10T18:17:57.799Z,19.63
2019-04-10T18:20:28.183Z,13.13
2019-04-10T18:22:58.749Z,13.00
2019-04-10T18:25:28.265Z,13.30
2019-04-10T18:27:57.591Z,13.07
2019-04-10T18:30:27.977Z,12.47
2019-04-10T18:32:58.173Z,13.17
2019-04-10T18:35:28.846Z,12.47
2019-04-10T18:37:59.695Z,11.73
2019-04-10T18:40:30.002Z,12.10
2019-04-10T18:43:00.612Z,13.03
2019-04-10T18:45:31.806Z,16.00
2019-04-10T18:48:01.052Z,12.20
2019-04-10T18:50:30.409Z,12.03
2019-04-10T18:52:59.767Z,12.57
2019-04-10T18:55:30.094Z,12.87
2019-04-10T18:58:00.151Z,12.80
2019-04-10T19:00:36.869Z,12.63
2019-04-10T19:03:23.558Z,20.07
2019-04-10T19:06:07.949Z,14.97
2019-04-10T19:08:37.658Z,12.03
2019-04-10T19:11:17.559Z,11.80
2019-04-10T19:13:38.556Z,11.87
2019-04-10T19:16:08.916Z,12.57
2019-04-10T19:18:39.544Z,12.23
2019-04-10T19:21:09.168Z,11.80
2019-04-10T19:23:39.370Z,13.53
2019-04-10T19:26:11.331Z,15.43
2019-04-10T19:28:43.422Z,14.47
2019-04-10T19:31:23.040Z,11.93
2019-04-10T19:33:51.832Z,11.40
2019-04-10T19:36:25.871Z,12.63
2019-04-10T19:38:55.902Z,18.10
2019-04-10T19:41:32.799Z,12.53
2019-04-10T19:43:56.845Z,11.33
2019-04-10T19:46:26.630Z,14.13
2019-04-10T19:48:56.144Z,21.83
2019-04-10T19:51:25.828Z,12.83
2019-04-10T19:53:55.527Z,23.43
2019-04-10T19:56:25.187Z,22.23
2019-04-10T19:58:55.168Z,18.17
2019-04-10T20:01:28.559Z,16.00
2019-04-10T20:03:56.455Z,13.30
2019-04-10T20:06:25.865Z,13.53
2019-04-10T20:08:55.815Z,12.30
2019-04-10T20:11:35.651Z,11.70
2019-04-10T20:13:57.626Z,13.43
2019-04-10T20:16:27.618Z,11.37
2019-04-10T20:18:57.491Z,12.10
2019-04-10T20:21:27.811Z,11.67
2019-04-10T20:23:58.569Z,12.20
2019-04-10T20:26:28.003Z,12.07
2019-04-10T20:28:59.100Z,11.70
2019-04-10T20:31:31.146Z,12.47
2019-04-10T20:34:03.317Z,11.63
2019-04-10T20:36:33.208Z,14.83
2019-04-10T20:39:05.956Z,14.90
2019-04-10T20:41:47.614Z,17.23
2019-04-10T20:44:07.254Z,12.33
2019-04-10T20:46:38.099Z,13.13
2019-04-10T20:49:08.549Z,11.63
2019-04-10T20:51:37.802Z,11.87
2019-04-10T20:54:07.086Z,11.10
2019-04-10T20:56:36.929Z,12.13
2019-04-10T20:59:07.648Z,13.63
2019-04-10T21:01:37.541Z,12.87
2019-04-10T21:04:07.350Z,12.03
2019-04-10T21:06:39.489Z,14.20
2019-04-10T21:09:09.769Z,23.77
2019-04-10T21:11:39.853Z,16.23
2019-04-10T21:14:09.484Z,16.17
2019-04-10T21:16:40.001Z,12.40
2019-04-10T21:19:11.016Z,11.23
2019-04-10T21:21:41.340Z,11.23
2019-04-10T21:24:11.434Z,10.90
2019-04-10T21:26:40.980Z,11.93
2019-04-10T21:29:12.788Z,11.27
2019-04-10T21:31:53.074Z,11.87
2019-04-10T21:34:32.815Z,12.07
2019-04-10T21:37:03.722Z,12.57
2019-04-10T21:39:33.950Z,11.47
2019-04-10T21:42:14.832Z,10.83
2019-04-10T21:44:37.188Z,11.30
2019-04-10T21:47:06.579Z,11.87
2019-04-10T21:49:36.062Z,12.57
2019-04-10T21:52:05.776Z,13.77
2019-04-10T21:54:35.379Z,14.17
2019-04-10T21:57:05.485Z,11.90
2019-04-10T21:59:34.967Z,12.47
2019-04-10T22:02:05.391Z,13.97
2019-04-10T22:04:35.007Z,12.23
2019-04-10T22:07:20.289Z,11.67
2019-04-10T22:10:09.900Z,11.87
2019-04-10T22:12:43.790Z,12.00
2019-04-10T22:15:28.785Z,11.60
2019-04-10T22:17:58.943Z,11.87
2019-04-10T22:20:29.671Z,11.87
2019-04-10T22:22:59.797Z,12.10
2019-04-10T22:25:29.838Z,12.67
2019-04-10T22:28:00.476Z,14.57
2019-04-10T22:30:30.120Z,12.17
2019-04-10T22:32:59.824Z,13.03
2019-04-10T22:35:29.372Z,12.63
2019-04-10T22:37:58.652Z,12.03
2019-04-10T22:40:29.050Z,12.60
2019-04-10T22:42:59.561Z,12.17
2019-04-10T22:45:32.674Z,12.63
2019-04-10T22:48:02.432Z,12.63
2019-04-10T22:50:31.825Z,12.23
2019-04-10T22:53:01.638Z,12.30
2019-04-10T22:55:31.921Z,10.97
2019-04-10T22:58:02.463Z,12.83
2019-04-10T23:00:32.815Z,11.83
2019-04-10T23:03:03.129Z,11.83
2019-04-10T23:05:32.808Z,14.80
2019-04-10T23:08:03.332Z,12.23
2019-04-10T23:10:33.220Z,12.20
2019-04-10T23:13:05.377Z,13.40
2019-04-10T23:15:33.692Z,12.63
2019-04-10T23:18:03.465Z,12.47
2019-04-10T23:20:34.063Z,12.33
2019-04-10T23:23:03.646Z,11.50
2019-04-10T23:25:34.218Z,11.87
2019-04-10T23:28:03.632Z,12.40
2019-04-10T23:30:33.109Z,13.60
2019-04-10T23:33:02.387Z,12.67
2019-04-10T23:35:31.718Z,11.50
2019-04-10T23:38:01.498Z,12.00
2019-04-10T23:40:31.312Z,12.63
2019-04-10T23:43:09.671Z,12.20
2019-04-10T23:45:31.697Z,14.00
2019-04-10T23:48:01.016Z,13.77
2019-04-10T23:50:30.453Z,12.13
2019-04-10T23:53:00.339Z,13.00
2019-04-10T23:55:30.228Z,13.50
2019-04-10T23:58:00.024Z,13.43
